Time;durP1;ratioP1;P1;durP2;ratioP2;P2;SDS_P1;SDS_P2;PMS_P1;PMS_P2;Temp;Humidity;BMP_temperature;BMP_pressure;BME280_temperature;BME280_humidity;BME280_pressure;Samples;Min_cycle;Max_cycle;Signal;HPM_P1;HPM_P2
2022/02/07 00:00:15;;;;;;;2.85;1.48;;;;;;;;;;5031350;28;20256;-47
2022/02/07 00:05:27;;;;;;;3.28;1.30;;;;;;;;;;5032418;28;20199;-47
2022/02/07 00:07:53;;;;;;;1.65;1.30;;;;;;;;;;5033054;28;20192;-47
2022/02/07 00:10:20;;;;;;;3.50;1.30;;;;;;;;;;5032245;28;20317;-48
2022/02/07 00:12:46;;;;;;;2.55;1.30;;;;;;;;;;5030363;28;20195;-47
2022/02/07 00:15:12;;;;;;;4.90;1.70;;;;;;;;;;5033856;28;20174;-47
2022/02/07 00:17:38;;;;;;;1.45;1.30;;;;;;;;;;5033702;28;20406;-47
2022/02/07 00:20:09;;;;;;;1.52;1.42;;;;;;;;;;5035137;28;20187;-47
2022/02/07 00:22:35;;;;;;;6.95;1.40;;;;;;;;;;5037168;28;20178;-47
2022/02/07 00:25:01;;;;;;;7.47;1.63;;;;;;;;;;5037748;28;20678;-48
2022/02/07 00:27:27;;;;;;;1.40;1.07;;;;;;;;;;5038601;28;20168;-47
2022/02/07 00:29:53;;;;;;;1.40;1.20;;;;;;;;;;5038551;28;20434;-49
2022/02/07 00:32:19;;;;;;;2.47;1.37;;;;;;;;;;5036136;28;20175;-46
2022/02/07 00:34:45;;;;;;;5.07;1.70;;;;;;;;;;5033830;28;20399;-46
2022/02/07 00:37:11;;;;;;;4.77;1.70;;;;;;;;;;5033610;28;20451;-46
2022/02/07 00:39:45;;;;;;;2.53;1.55;;;;;;;;;;5033303;28;20427;-46
2022/02/07 00:42:21;;;;;;;1.98;1.20;;;;;;;;;;5032675;28;20187;-45
2022/02/07 00:44:49;;;;;;;1.60;1.05;;;;;;;;;;5032719;28;20666;-45
2022/02/07 00:47:15;;;;;;;4.35;1.77;;;;;;;;;;5033494;28;20164;-44
2022/02/07 00:49:41;;;;;;;5.57;1.90;;;;;;;;;;5033025;28;20180;-45
2022/02/07 00:52:07;;;;;;;2.22;1.45;;;;;;;;;;5033297;28;20178;-45
2022/02/07 00:54:33;;;;;;;3.53;1.53;;;;;;;;;;5033311;28;20248;-44
2022/02/07 00:56:59;;;;;;;3.60;1.50;;;;;;;;;;5033235;28;20410;-44
2022/02/07 00:59:25;;;;;;;2.70;1.73;;;;;;;;;;5032870;28;20918;-45
2022/02/07 01:01:51;;;;;;;3.13;1.43;;;;;;;;;;5033079;28;20468;-44
2022/02/07 01:04:17;;;;;;;3.03;1.40;;;;;;;;;;5032874;28;20454;-43
2022/02/07 01:06:43;;;;;;;2.92;1.42;;;;;;;;;;5033125;28;20905;-44
2022/02/07 01:09:19;;;;;;;2.77;2.10;;;;;;;;;;5032749;28;20196;-45
2022/02/07 01:46:14;;;;;;;3.58;1.20;;;;;;;;;;5032236;28;20186;-44
2022/02/07 01:55:40;;;;;;;5.95;2.30;;;;;;;;;;5032384;28;20643;-45
2022/02/07 01:58:07;;;;;;;3.85;1.90;;;;;;;;;;5032401;28;20686;-45
2022/02/07 02:00:33;;;;;;;7.53;2.42;;;;;;;;;;5032072;28;20175;-45
2022/02/07 02:02:59;;;;;;;11.77;2.33;;;;;;;;;;5031934;28;20168;-44
2022/02/07 02:05:25;;;;;;;5.68;1.73;;;;;;;;;;5031927;28;20202;-45
2022/02/07 02:07:51;;;;;;;5.22;2.08;;;;;;;;;;5032021;28;20243;-45
2022/02/07 02:10:17;;;;;;;8.45;2.47;;;;;;;;;;5031570;28;20183;-44
2022/02/07 02:12:56;;;;;;;10.57;2.47;;;;;;;;;;5031679;28;20701;-45
2022/02/07 02:37:09;;;;;;;7.07;2.30;;;;;;;;;;5031433;28;20174;-44
2022/02/07 02:48:20;;;;;;;5.50;2.08;;;;;;;;;;4969908;28;20264;-45
2022/02/07 02:50:50;;;;;;;4.90;1.60;;;;;;;;;;5023541;28;20186;-45
2022/02/07 02:53:17;;;;;;;7.55;2.15;;;;;;;;;;5031157;28;20168;-46
2022/02/07 02:55:44;;;;;;;7.90;1.92;;;;;;;;;;5031095;28;20653;-45
2022/02/07 02:58:11;;;;;;;7.25;2.05;;;;;;;;;;5031055;28;20217;-45
2022/02/07 03:00:38;;;;;;;11.38;3.00;;;;;;;;;;5030913;28;20205;-45
2022/02/07 03:03:04;;;;;;;5.45;1.90;;;;;;;;;;5031037;28;20263;-45
2022/02/07 03:05:30;;;;;;;15.93;2.70;;;;;;;;;;5030723;28;20298;-44
2022/02/07 03:07:57;;;;;;;7.15;2.50;;;;;;;;;;5030998;28;20403;-45
2022/02/07 03:10:27;;;;;;;6.03;2.05;;;;;;;;;;5030786;28;20691;-45
2022/02/07 03:13:12;;;;;;;12.52;2.42;;;;;;;;;;5030075;28;20167;-45
2022/02/07 03:18:23;;;;;;;6.05;2.05;;;;;;;;;;5031118;28;20179;-45
2022/02/07 03:20:49;;;;;;;6.38;2.30;;;;;;;;;;5031024;28;20168;-45
2022/02/07 03:23:15;;;;;;;9.93;2.10;;;;;;;;;;5031160;28;20663;-45
2022/02/07 03:25:41;;;;;;;7.25;2.83;;;;;;;;;;5031054;28;20464;-45
2022/02/07 03:28:07;;;;;;;4.13;2.05;;;;;;;;;;5030976;28;20164;-45
2022/02/07 03:30:34;;;;;;;7.47;2.70;;;;;;;;;;5030685;28;20631;-45
2022/02/07 03:33:00;;;;;;;9.18;2.00;;;;;;;;;;5030779;28;20735;-45
2022/02/07 03:35:26;;;;;;;8.63;2.00;;;;;;;;;;5030825;28;20700;-45
2022/02/07 03:37:52;;;;;;;11.00;2.03;;;;;;;;;;5030852;28;20398;-45
2022/02/07 03:40:18;;;;;;;7.77;2.17;;;;;;;;;;5030381;28;20191;-45
2022/02/07 03:42:44;;;;;;;11.70;2.10;;;;;;;;;;5030451;28;20896;-45
2022/02/07 03:45:11;;;;;;;7.10;2.10;;;;;;;;;;5028249;28;20198;-45
2022/02/07 03:47:37;;;;;;;6.32;2.10;;;;;;;;;;5030234;28;20408;-46
2022/02/07 03:50:03;;;;;;;8.73;2.30;;;;;;;;;;5030408;28;20682;-45
2022/02/07 03:52:29;;;;;;;5.53;2.05;;;;;;;;;;5030615;28;20644;-46
2022/02/07 03:54:55;;;;;;;5.20;2.13;;;;;;;;;;5033148;28;20170;-45
2022/02/07 03:57:21;;;;;;;12.63;2.67;;;;;;;;;;5034257;28;21006;-46
2022/02/07 03:59:47;;;;;;;6.70;2.35;;;;;;;;;;5034072;28;20429;-45
2022/02/07 04:02:14;;;;;;;14.55;4.10;;;;;;;;;;5034257;28;20167;-46
2022/02/07 04:04:42;;;;;;;12.95;2.90;;;;;;;;;;5034181;28;20195;-46
2022/02/07 04:07:10;;;;;;;8.23;2.88;;;;;;;;;;5034193;28;20164;-45
2022/02/07 04:09:42;;;;;;;8.90;2.20;;;;;;;;;;5033842;28;20207;-46
2022/02/07 04:12:13;;;;;;;11.77;2.28;;;;;;;;;;5034112;28;20160;-44
2022/02/07 04:14:40;;;;;;;6.53;3.10;;;;;;;;;;5032663;28;20811;-45
2022/02/07 04:17:12;;;;;;;10.93;2.78;;;;;;;;;;5034058;28;20557;-45
2022/02/07 04:19:39;;;;;;;16.60;4.35;;;;;;;;;;5033773;28;20188;-45
2022/02/07 04:22:07;;;;;;;18.38;3.00;;;;;;;;;;5033770;28;20705;-45
2022/02/07 04:24:34;;;;;;;9.07;2.85;;;;;;;;;;5033745;28;20205;-45
2022/02/07 04:27:00;;;;;;;5.13;2.60;;;;;;;;;;5033834;28;20168;-45
2022/02/07 04:29:26;;;;;;;8.40;2.15;;;;;;;;;;5033372;28;20211;-46
2022/02/07 04:31:52;;;;;;;19.20;3.10;;;;;;;;;;5033848;28;20184;-45
2022/02/07 04:34:18;;;;;;;9.67;2.80;;;;;;;;;;5033778;28;20464;-45
2022/02/07 04:36:46;;;;;;;9.88;1.80;;;;;;;;;;5033692;28;20398;-44
2022/02/07 04:39:12;;;;;;;5.80;2.00;;;;;;;;;;5033482;28;20245;-45
2022/02/07 04:41:41;;;;;;;8.00;2.15;;;;;;;;;;5033860;28;20171;-45
2022/02/07 04:44:10;;;;;;;4.35;2.03;;;;;;;;;;5032670;28;20707;-44
2022/02/07 05:15:47;;;;;;;8.23;2.05;;;;;;;;;;5032997;28;20185;-45
2022/02/07 05:18:13;;;;;;;9.50;2.42;;;;;;;;;;5032849;28;20693;-45
2022/02/07 05:20:39;;;;;;;7.80;3.13;;;;;;;;;;5032553;28;20180;-46
2022/02/07 05:23:05;;;;;;;17.97;2.53;;;;;;;;;;5032647;28;20411;-45
2022/02/07 05:25:31;;;;;;;8.80;2.50;;;;;;;;;;5032659;28;20454;-45
2022/02/07 05:27:57;;;;;;;15.77;3.47;;;;;;;;;;5031835;28;20430;-45
2022/02/07 05:30:23;;;;;;;13.57;2.73;;;;;;;;;;5032321;28;20306;-44
2022/02/07 05:32:49;;;;;;;9.87;3.37;;;;;;;;;;5032533;28;20404;-45
2022/02/07 05:35:15;;;;;;;15.10;3.37;;;;;;;;;;5032425;28;20773;-46
2022/02/07 05:37:41;;;;;;;8.30;2.40;;;;;;;;;;5032480;28;20497;-45
2022/02/07 05:40:21;;;;;;;11.50;2.38;;;;;;;;;;5032181;28;20422;-45
2022/02/07 05:42:47;;;;;;;10.27;3.20;;;;;;;;;;5031385;28;20206;-45
2022/02/07 05:45:13;;;;;;;11.63;2.50;;;;;;;;;;5032360;28;20198;-45
2022/02/07 05:47:39;;;;;;;11.37;3.03;;;;;;;;;;5032337;28;20405;-45
2022/02/07 05:50:05;;;;;;;11.40;3.03;;;;;;;;;;5032209;28;20429;-45
2022/02/07 05:52:31;;;;;;;7.53;2.45;;;;;;;;;;5032063;28;20406;-45
2022/02/07 05:54:57;;;;;;;12.63;3.27;;;;;;;;;;5032424;28;20175;-44
2022/02/07 05:57:23;;;;;;;6.53;2.47;;;;;;;;;;5032326;28;20391;-45
2022/02/07 05:59:49;;;;;;;11.30;2.60;;;;;;;;;;5032167;28;20441;-45
2022/02/07 06:02:14;;;;;;;6.27;2.80;;;;;;;;;;5032083;28;20398;-45
2022/02/07 06:04:40;;;;;;;6.70;3.17;;;;;;;;;;5032074;28;20476;-45
2022/02/07 06:07:06;;;;;;;10.57;2.37;;;;;;;;;;5032155;28;20394;-45
2022/02/07 06:09:32;;;;;;;10.80;3.07;;;;;;;;;;5031797;28;20472;-45
2022/02/07 06:11:58;;;;;;;8.00;2.33;;;;;;;;;;5031844;28;20405;-45
2022/02/07 06:14:24;;;;;;;11.80;3.20;;;;;;;;;;5030876;28;20441;-46
2022/02/07 06:16:50;;;;;;;7.85;3.63;;;;;;;;;;5031271;28;20399;-45
2022/02/07 06:19:17;;;;;;;19.13;3.17;;;;;;;;;;5031059;28;20242;-46
2022/02/07 06:21:43;;;;;;;8.65;2.88;;;;;;;;;;5031628;28;20905;-45
2022/02/07 06:24:09;;;;;;;11.67;3.10;;;;;;;;;;5031582;28;20187;-45
2022/02/07 06:26:35;;;;;;;12.55;2.88;;;;;;;;;;5031506;28;20398;-45
2022/02/07 06:29:01;;;;;;;10.13;3.37;;;;;;;;;;5031204;28;20586;-46
2022/02/07 06:31:28;;;;;;;13.15;2.53;;;;;;;;;;5032038;28;20429;-46
2022/02/07 06:33:54;;;;;;;7.57;3.25;;;;;;;;;;5031428;28;20171;-45
2022/02/07 06:36:20;;;;;;;10.80;3.33;;;;;;;;;;5031379;28;20167;-45
2022/02/07 06:38:47;;;;;;;12.32;3.42;;;;;;;;;;5031340;28;20222;-45
2022/02/07 06:41:13;;;;;;;9.05;3.20;;;;;;;;;;5031194;28;20170;-45
2022/02/07 06:43:39;;;;;;;9.77;2.85;;;;;;;;;;5030263;28;20274;-45
2022/02/07 06:46:05;;;;;;;11.73;3.00;;;;;;;;;;5031079;28;20282;-45
2022/02/07 06:48:31;;;;;;;11.25;2.72;;;;;;;;;;5031192;28;20914;-45
2022/02/07 06:50:57;;;;;;;13.50;2.87;;;;;;;;;;5031069;28;20250;-45
2022/02/07 06:53:23;;;;;;;17.50;3.70;;;;;;;;;;5031163;28;20890;-45
2022/02/07 06:55:49;;;;;;;7.50;2.80;;;;;;;;;;5031188;28;20412;-45
2022/02/07 06:58:16;;;;;;;19.42;2.90;;;;;;;;;;5031105;28;20849;-45
2022/02/07 07:00:42;;;;;;;10.05;3.05;;;;;;;;;;5030915;28;20180;-45
2022/02/07 07:03:14;;;;;;;11.15;3.65;;;;;;;;;;5031089;28;20250;-45
2022/02/07 07:05:40;;;;;;;6.68;2.90;;;;;;;;;;5031020;28;20667;-45
2022/02/07 07:08:06;;;;;;;16.73;5.33;;;;;;;;;;5031112;28;20186;-45
2022/02/07 07:10:32;;;;;;;15.73;3.70;;;;;;;;;;5030695;28;20480;-45
2022/02/07 07:13:12;;;;;;;9.77;3.15;;;;;;;;;;5030088;28;20403;-45
2022/02/07 07:15:52;;;;;;;8.38;3.42;;;;;;;;;;5030932;28;20680;-45
2022/02/07 07:18:20;;;;;;;19.65;4.80;;;;;;;;;;5031029;28;20196;-45
2022/02/07 07:20:46;;;;;;;14.13;3.55;;;;;;;;;;5030840;28;20164;-44
2022/02/07 07:23:12;;;;;;;14.77;3.83;;;;;;;;;;5031098;28;20190;-45
2022/02/07 07:25:40;;;;;;;13.35;3.17;;;;;;;;;;5031062;28;20503;-45
2022/02/07 07:28:10;;;;;;;15.60;3.38;;;;;;;;;;5030992;28;20164;-45
2022/02/07 07:30:44;;;;;;;13.52;3.35;;;;;;;;;;5034659;28;20543;-45
2022/02/07 07:33:15;;;;;;;14.63;3.25;;;;;;;;;;5034950;28;20163;-45
2022/02/07 07:35:41;;;;;;;19.80;4.18;;;;;;;;;;5034946;28;20532;-45
2022/02/07 07:38:07;;;;;;;20.40;3.97;;;;;;;;;;5034881;28;20267;-45
2022/02/07 07:40:33;;;;;;;11.52;2.72;;;;;;;;;;5034283;28;20422;-46
2022/02/07 07:42:59;;;;;;;8.32;2.80;;;;;;;;;;5034650;28;20164;-45
2022/02/07 07:45:32;;;;;;;21.38;4.35;;;;;;;;;;5033942;28;20338;-45
2022/02/07 07:48:01;;;;;;;11.70;3.22;;;;;;;;;;5034707;28;20191;-46
2022/02/07 07:50:38;;;;;;;12.13;3.40;;;;;;;;;;5034334;28;20582;-44
2022/02/07 07:53:23;;;;;;;13.82;3.78;;;;;;;;;;5034410;28;20155;-44
2022/02/07 08:01:39;;;;;;;12.15;2.53;;;;;;;;;;5034267;28;20253;-45
2022/02/07 08:04:06;;;;;;;5.78;2.63;;;;;;;;;;5034189;28;20284;-44
2022/02/07 08:06:44;;;;;;;25.45;4.05;;;;;;;;;;5034178;28;20159;-45
2022/02/07 08:09:20;;;;;;;11.55;4.80;;;;;;;;;;5034040;28;20945;-44
2022/02/07 08:11:47;;;;;;;11.68;3.20;;;;;;;;;;5034036;28;20168;-44
2022/02/07 08:14:13;;;;;;;17.98;3.47;;;;;;;;;;5032314;28;20643;-47
2022/02/07 08:16:39;;;;;;;13.27;3.63;;;;;;;;;;5034021;28;20305;-45
2022/02/07 08:19:08;;;;;;;15.30;3.10;;;;;;;;;;5033740;28;20804;-45
2022/02/07 08:21:35;;;;;;;10.13;2.92;;;;;;;;;;5033915;28;20394;-45
2022/02/07 08:24:01;;;;;;;7.68;2.78;;;;;;;;;;5033768;28;20191;-45
2022/02/07 08:26:27;;;;;;;10.75;2.60;;;;;;;;;;5033762;28;20160;-45
2022/02/07 08:28:53;;;;;;;10.40;2.10;;;;;;;;;;5033447;28;20207;-45
2022/02/07 08:31:20;;;;;;;8.80;3.00;;;;;;;;;;5033740;28;20508;-45
2022/02/07 08:33:48;;;;;;;7.68;1.55;;;;;;;;;;5033686;28;20409;-45
2022/02/07 08:36:16;;;;;;;7.38;2.20;;;;;;;;;;5033680;28;20172;-45
2022/02/07 08:38:42;;;;;;;5.20;1.85;;;;;;;;;;5033563;28;20542;-45
2022/02/07 08:41:08;;;;;;;4.65;2.22;;;;;;;;;;5032334;28;20164;-45
2022/02/07 08:43:34;;;;;;;18.27;3.83;;;;;;;;;;5033566;28;20170;-45
2022/02/07 08:46:00;;;;;;;6.80;2.95;;;;;;;;;;5032440;28;20466;-45
2022/02/07 08:48:26;;;;;;;10.60;2.55;;;;;;;;;;5033623;28;20217;-45
2022/02/07 08:50:55;;;;;;;13.32;2.55;;;;;;;;;;5029373;28;20174;-45
2022/02/07 08:53:23;;;;;;;4.72;2.03;;;;;;;;;;5032425;28;20545;-46
2022/02/07 08:55:52;;;;;;;4.25;2.05;;;;;;;;;;5033029;28;20263;-45
2022/02/07 08:58:21;;;;;;;9.02;1.88;;;;;;;;;;5033250;28;20168;-45
2022/02/07 09:00:53;;;;;;;8.27;2.78;;;;;;;;;;5033022;28;20175;-45
2022/02/07 09:10:44;;;;;;;7.00;2.58;;;;;;;;;;5032993;28;20263;-45
2022/02/07 09:13:10;;;;;;;11.13;2.95;;;;;;;;;;5032935;28;20175;-45
2022/02/07 09:18:07;;;;;;;9.95;2.58;;;;;;;;;;5032891;28;20197;-45
2022/02/07 09:20:35;;;;;;;9.43;2.42;;;;;;;;;;5028909;28;20260;-45
2022/02/07 09:23:01;;;;;;;6.70;2.40;;;;;;;;;;5032567;28;20233;-46
2022/02/07 09:25:27;;;;;;;11.73;4.17;;;;;;;;;;5032417;28;20241;-45
2022/02/07 09:27:53;;;;;;;15.18;4.25;;;;;;;;;;5032586;28;20493;-45
2022/02/07 09:30:19;;;;;;;13.20;3.50;;;;;;;;;;5032100;28;20266;-45
2022/02/07 09:32:46;;;;;;;16.10;3.20;;;;;;;;;;5032449;28;20402;-45
2022/02/07 09:35:12;;;;;;;4.88;2.80;;;;;;;;;;5032151;28;20411;-44
2022/02/07 09:37:39;;;;;;;12.07;3.23;;;;;;;;;;5032061;28;20175;-46
2022/02/07 09:40:05;;;;;;;22.08;5.20;;;;;;;;;;5031970;28;20421;-46
2022/02/07 09:42:33;;;;;;;14.00;3.60;;;;;;;;;;5015871;28;20600;-45
2022/02/07 09:45:09;;;;;;;16.00;4.07;;;;;;;;;;5021048;28;20600;-45
2022/02/07 09:47:35;;;;;;;9.90;4.13;;;;;;;;;;5032136;28;20161;-45
2022/02/07 09:50:01;;;;;;;15.67;3.27;;;;;;;;;;5031344;28;20959;-45
2022/02/07 09:52:26;;;;;;;8.40;3.47;;;;;;;;;;5031996;28;20407;-45
2022/02/07 09:54:52;;;;;;;13.97;4.00;;;;;;;;;;5032007;28;20447;-45
2022/02/07 09:57:20;;;;;;;15.33;4.13;;;;;;;;;;5031411;28;20439;-45
2022/02/07 09:59:50;;;;;;;7.80;3.57;;;;;;;;;;5031793;28;20502;-45
2022/02/07 10:02:26;;;;;;;22.03;3.53;;;;;;;;;;5031699;28;20460;-45
2022/02/07 10:04:55;;;;;;;12.52;3.92;;;;;;;;;;5032075;28;20459;-45
2022/02/07 10:07:39;;;;;;;21.10;4.10;;;;;;;;;;5032073;28;20182;-45
2022/02/07 10:10:29;;;;;;;16.05;4.00;;;;;;;;;;5031630;28;20498;-45
2022/02/07 10:15:51;;;;;;;16.13;4.20;;;;;;;;;;5030931;28;20482;-46
2022/02/07 10:18:35;;;;;;;10.30;3.47;;;;;;;;;;5031621;28;20465;-45
2022/02/07 10:45:59;;;;;;;11.10;2.50;;;;;;;;;;5030332;28;20476;-45
2022/02/07 10:48:33;;;;;;;16.53;4.80;;;;;;;;;;5031199;28;20404;-46
2022/02/07 10:51:05;;;;;;;10.63;2.83;;;;;;;;;;5030927;28;20408;-46
2022/02/07 10:53:34;;;;;;;25.03;4.50;;;;;;;;;;5031109;28;20404;-45
2022/02/07 10:56:01;;;;;;;8.70;2.80;;;;;;;;;;5030125;28;20432;-46
2022/02/07 10:58:27;;;;;;;15.93;3.50;;;;;;;;;;5030928;28;20777;-46
2022/02/07 11:00:57;;;;;;;12.93;3.23;;;;;;;;;;5030849;28;20396;-45
2022/02/07 11:03:25;;;;;;;14.20;3.80;;;;;;;;;;5030499;28;20433;-45
2022/02/07 11:05:56;;;;;;;18.87;4.30;;;;;;;;;;5030073;28;20456;-45
2022/02/07 11:11:17;;;;;;;18.40;3.27;;;;;;;;;;5030618;28;20483;-45
2022/02/07 11:16:19;;;;;;;13.30;2.80;;;;;;;;;;5030759;28;20670;-46
2022/02/07 11:21:39;;;;;;;14.67;2.80;;;;;;;;;;5031483;28;20475;-45
2022/02/07 11:24:27;;;;;;;10.03;1.93;;;;;;;;;;5030867;28;20400;-45
2022/02/07 11:26:53;;;;;;;11.37;3.13;;;;;;;;;;5030010;28;20563;-45
2022/02/07 11:29:35;;;;;;;13.03;4.07;;;;;;;;;;5030659;28;20814;-46
2022/02/07 11:32:01;;;;;;;9.20;3.20;;;;;;;;;;5030624;28;20399;-46
2022/02/07 11:34:41;;;;;;;18.30;3.90;;;;;;;;;;5030607;28;20806;-45
2022/02/07 11:37:18;;;;;;;16.30;4.70;;;;;;;;;;5030715;28;20392;-45
2022/02/07 11:39:48;;;;;;;21.03;4.87;;;;;;;;;;5030404;28;20427;-45
2022/02/07 11:42:14;;;;;;;26.80;3.43;;;;;;;;;;5030701;28;20403;-45
2022/02/07 11:44:43;;;;;;;20.70;3.73;;;;;;;;;;5030226;28;20460;-45
2022/02/07 11:47:12;;;;;;;17.17;3.83;;;;;;;;;;5028955;28;20428;-46
2022/02/07 11:49:39;;;;;;;17.23;3.73;;;;;;;;;;5022265;28;20602;-45
2022/02/07 11:52:24;;;;;;;15.03;3.00;;;;;;;;;;5030468;28;20400;-46
2022/02/07 11:54:56;;;;;;;11.77;2.83;;;;;;;;;;5029690;28;21004;-47
2022/02/07 11:57:24;;;;;;;10.97;2.93;;;;;;;;;;5030389;28;21117;-46
2022/02/07 11:59:57;;;;;;;16.40;3.30;;;;;;;;;;5030217;28;20430;-45
2022/02/07 12:02:34;;;;;;;9.93;3.60;;;;;;;;;;5030435;28;20475;-45
2022/02/07 12:05:00;;;;;;;9.07;3.00;;;;;;;;;;5028269;28;20462;-45
2022/02/07 12:07:26;;;;;;;8.83;2.67;;;;;;;;;;5028858;28;20424;-46
2022/02/07 12:10:06;;;;;;;17.03;3.30;;;;;;;;;;5030140;28;20510;-45
2022/02/07 12:12:52;;;;;;;13.17;2.87;;;;;;;;;;5030005;28;20400;-46
2022/02/07 12:15:20;;;;;;;11.03;2.60;;;;;;;;;;5031858;28;20957;-46
2022/02/07 12:17:47;;;;;;;7.23;3.03;;;;;;;;;;5034009;28;20402;-48
2022/02/07 12:20:15;;;;;;;11.10;3.50;;;;;;;;;;5033776;28;21142;-48
2022/02/07 12:22:56;;;;;;;11.90;2.67;;;;;;;;;;5034083;28;20932;-48
2022/02/07 12:25:22;;;;;;;5.20;2.30;;;;;;;;;;5015354;28;20467;-48
2022/02/07 12:27:48;;;;;;;10.30;2.17;;;;;;;;;;5033817;28;20465;-48
2022/02/07 12:30:18;;;;;;;14.73;3.20;;;;;;;;;;5033504;28;20438;-48
2022/02/07 12:32:46;;;;;;;10.00;3.03;;;;;;;;;;5036608;28;20419;-50
2022/02/07 12:35:12;;;;;;;11.67;2.53;;;;;;;;;;5036613;28;20405;-50
2022/02/07 12:37:39;;;;;;;6.90;2.83;;;;;;;;;;5037152;28;20413;-50
2022/02/07 12:40:06;;;;;;;10.07;2.90;;;;;;;;;;5037269;28;20521;-48
2022/02/07 12:42:33;;;;;;;7.90;2.60;;;;;;;;;;5034389;28;20948;-51
2022/02/07 12:45:00;;;;;;;10.57;3.43;;;;;;;;;;5034399;28;20864;-51
2022/02/07 12:47:26;;;;;;;15.07;4.00;;;;;;;;;;5036500;28;20463;-50
2022/02/07 12:49:55;;;;;;;9.30;2.60;;;;;;;;;;5036451;28;20422;-49
2022/02/07 12:52:21;;;;;;;11.40;3.60;;;;;;;;;;5036689;28;20475;-51
2022/02/07 12:54:47;;;;;;;11.03;2.87;;;;;;;;;;5036036;28;20410;-48
2022/02/07 12:57:13;;;;;;;12.27;3.77;;;;;;;;;;5036019;28;20502;-48
2022/02/07 12:59:50;;;;;;;11.60;2.43;;;;;;;;;;5037378;28;20580;-48
2022/02/07 13:02:16;;;;;;;11.43;3.80;;;;;;;;;;5036722;28;20478;-47
2022/02/07 13:04:43;;;;;;;25.57;9.40;;;;;;;;;;5037425;28;20996;-48
2022/02/07 13:07:10;;;;;;;11.37;3.20;;;;;;;;;;5036516;28;20473;-49
2022/02/07 13:09:50;;;;;;;7.13;2.27;;;;;;;;;;5036555;28;20471;-51
2022/02/07 13:12:24;;;;;;;17.27;3.70;;;;;;;;;;5036071;28;20769;-48
2022/02/07 13:14:51;;;;;;;11.87;3.00;;;;;;;;;;5036703;28;20416;-49
2022/02/07 13:17:20;;;;;;;9.90;2.70;;;;;;;;;;5036049;28;20407;-49
2022/02/07 13:19:49;;;;;;;10.40;2.60;;;;;;;;;;5034666;28;20454;-50
2022/02/07 13:22:16;;;;;;;11.50;3.40;;;;;;;;;;5036406;28;20424;-51
2022/02/07 13:24:43;;;;;;;15.13;3.90;;;;;;;;;;5036201;28;20461;-48
2022/02/07 13:27:10;;;;;;;11.37;2.90;;;;;;;;;;5021317;28;20446;-48
2022/02/07 13:29:47;;;;;;;17.73;4.30;;;;;;;;;;5016506;28;20573;-49
2022/02/07 13:32:17;;;;;;;10.03;3.47;;;;;;;;;;5016612;28;20441;-49
2022/02/07 13:34:44;;;;;;;11.77;3.17;;;;;;;;;;5017161;28;20399;-49
2022/02/07 13:37:16;;;;;;;11.20;3.77;;;;;;;;;;5017298;28;20662;-48
2022/02/07 13:39:51;;;;;;;8.60;2.70;;;;;;;;;;5016860;28;20419;-48
2022/02/07 13:42:17;;;;;;;6.93;3.40;;;;;;;;;;5016357;28;20405;-48
2022/02/07 13:44:44;;;;;;;7.00;3.93;;;;;;;;;;5026121;28;20462;-48
2022/02/07 13:47:11;;;;;;;9.77;3.50;;;;;;;;;;5036924;28;20473;-48
2022/02/07 13:49:56;;;;;;;8.97;3.73;;;;;;;;;;5036028;28;20420;-48
2022/02/07 13:52:22;;;;;;;8.97;5.70;;;;;;;;;;5035444;28;20559;-48
2022/02/07 13:54:48;;;;;;;11.03;4.10;;;;;;;;;;5036280;28;20442;-48
2022/02/07 13:57:14;;;;;;;18.67;3.93;;;;;;;;;;5036223;28;20405;-47
2022/02/07 13:59:41;;;;;;;9.40;5.20;;;;;;;;;;5035420;28;20448;-48
2022/02/07 14:02:26;;;;;;;11.33;4.30;;;;;;;;;;5035643;28;20412;-47
2022/02/07 14:04:53;;;;;;;24.07;5.70;;;;;;;;;;5035190;28;20456;-48
2022/02/07 14:07:19;;;;;;;9.33;4.23;;;;;;;;;;5035509;28;20458;-48
2022/02/07 14:09:45;;;;;;;14.57;5.03;;;;;;;;;;5035554;28;20428;-48
2022/02/07 14:12:13;;;;;;;14.33;5.47;;;;;;;;;;5035756;28;21114;-48
2022/02/07 14:14:39;;;;;;;12.23;5.33;;;;;;;;;;5034837;28;20801;-49
2022/02/07 14:17:06;;;;;;;18.00;4.77;;;;;;;;;;5035845;28;20890;-50
2022/02/07 14:19:46;;;;;;;14.00;4.57;;;;;;;;;;5034965;28;20433;-49
2022/02/07 14:22:12;;;;;;;10.37;4.40;;;;;;;;;;5035296;28;20417;-49
2022/02/07 14:24:38;;;;;;;12.77;4.20;;;;;;;;;;5035248;28;20453;-48
2022/02/07 14:27:05;;;;;;;10.97;4.03;;;;;;;;;;5035115;28;20405;-49
2022/02/07 14:29:31;;;;;;;9.90;3.07;;;;;;;;;;5034104;28;20473;-49
2022/02/07 14:31:57;;;;;;;9.00;3.67;;;;;;;;;;5034295;28;20400;-49
2022/02/07 14:34:23;;;;;;;5.13;3.53;;;;;;;;;;5033692;28;20445;-49
2022/02/07 14:36:49;;;;;;;14.50;3.87;;;;;;;;;;5033387;28;20440;-49
2022/02/07 14:39:15;;;;;;;5.13;3.10;;;;;;;;;;5032263;28;20469;-49
2022/02/07 14:41:41;;;;;;;9.43;3.33;;;;;;;;;;5033088;28;20845;-49
2022/02/07 14:44:15;;;;;;;8.80;2.70;;;;;;;;;;5032089;28;20519;-48
2022/02/07 14:46:51;;;;;;;12.70;2.40;;;;;;;;;;5033761;28;20437;-48
2022/02/07 14:49:17;;;;;;;9.10;3.30;;;;;;;;;;5032805;28;20422;-48
2022/02/07 14:51:43;;;;;;;16.43;3.30;;;;;;;;;;5032937;28;20400;-48
2022/02/07 14:54:09;;;;;;;15.20;4.97;;;;;;;;;;5032894;28;20877;-47
2022/02/07 14:56:35;;;;;;;8.07;2.77;;;;;;;;;;5033045;28;20401;-49
2022/02/07 14:59:01;;;;;;;8.73;3.53;;;;;;;;;;5032049;28;20517;-49
2022/02/07 15:01:27;;;;;;;15.70;3.63;;;;;;;;;;5034182;28;20898;-50
2022/02/07 15:03:55;;;;;;;8.10;2.90;;;;;;;;;;5034856;28;21023;-50
2022/02/07 15:06:21;;;;;;;11.20;2.97;;;;;;;;;;5033643;28;20463;-48
2022/02/07 15:08:47;;;;;;;7.70;2.63;;;;;;;;;;5034301;28;20419;-47
2022/02/07 15:11:16;;;;;;;5.33;2.50;;;;;;;;;;5034722;28;20407;-48
2022/02/07 15:13:42;;;;;;;6.10;2.63;;;;;;;;;;5034065;28;20830;-48
2022/02/07 15:16:08;;;;;;;9.03;2.57;;;;;;;;;;5034133;28;20447;-48
2022/02/07 15:18:34;;;;;;;7.67;3.23;;;;;;;;;;5034108;28;20428;-48
2022/02/07 15:21:01;;;;;;;11.87;3.57;;;;;;;;;;5035871;28;20457;-48
2022/02/07 15:23:28;;;;;;;12.57;4.03;;;;;;;;;;5035608;28;20414;-49
2022/02/07 15:25:54;;;;;;;9.60;3.60;;;;;;;;;;5035430;28;20831;-48
2022/02/07 15:28:20;;;;;;;5.67;3.10;;;;;;;;;;5035852;28;20488;-48
2022/02/07 15:30:46;;;;;;;12.83;3.07;;;;;;;;;;5035138;28;20444;-48
2022/02/07 15:33:21;;;;;;;5.97;2.50;;;;;;;;;;5034989;28;20902;-48
2022/02/07 15:35:48;;;;;;;7.63;3.30;;;;;;;;;;5034686;28;20168;-49
2022/02/07 15:38:14;;;;;;;7.40;2.97;;;;;;;;;;5034356;28;20473;-48
2022/02/07 15:40:40;;;;;;;6.37;3.03;;;;;;;;;;5034897;28;20418;-48
2022/02/07 15:43:07;;;;;;;5.70;2.93;;;;;;;;;;5033947;28;20403;-48
2022/02/07 15:45:36;;;;;;;8.10;3.20;;;;;;;;;;5034957;28;20455;-48
2022/02/07 15:48:03;;;;;;;5.10;3.63;;;;;;;;;;5034423;28;20439;-51
2022/02/07 15:50:29;;;;;;;11.30;2.80;;;;;;;;;;5035859;28;20216;-47
2022/02/07 15:52:59;;;;;;;6.40;3.47;;;;;;;;;;5039236;28;20408;-49
2022/02/07 15:55:27;;;;;;;5.17;2.80;;;;;;;;;;5039650;28;20406;-50
2022/02/07 15:57:53;;;;;;;4.80;3.53;;;;;;;;;;5039126;28;20402;-49
2022/02/07 16:00:19;;;;;;;10.63;2.57;;;;;;;;;;5038639;28;20465;-48
2022/02/07 16:02:49;;;;;;;5.97;2.27;;;;;;;;;;5038884;28;20545;-48
2022/02/07 16:05:22;;;;;;;4.60;2.10;;;;;;;;;;5038417;28;20818;-48
2022/02/07 16:07:48;;;;;;;11.93;3.47;;;;;;;;;;5038979;28;20391;-49
2022/02/07 16:10:15;;;;;;;11.07;2.60;;;;;;;;;;5037743;28;20419;-48
2022/02/07 16:12:45;;;;;;;6.60;2.80;;;;;;;;;;5036731;28;20419;-48
2022/02/07 16:15:15;;;;;;;5.30;2.70;;;;;;;;;;5038971;28;21089;-48
2022/02/07 16:17:41;;;;;;;9.93;2.23;;;;;;;;;;5038388;28;20430;-49
2022/02/07 16:20:08;;;;;;;7.93;2.33;;;;;;;;;;5038644;28;21026;-48
2022/02/07 16:22:34;;;;;;;10.07;2.73;;;;;;;;;;5038508;28;20404;-47
2022/02/07 16:25:00;;;;;;;4.67;1.83;;;;;;;;;;5037763;28;20550;-48
2022/02/07 16:27:26;;;;;;;9.23;2.40;;;;;;;;;;5038121;28;20395;-49
2022/02/07 16:29:52;;;;;;;4.97;2.43;;;;;;;;;;5036818;28;20470;-49
2022/02/07 16:32:18;;;;;;;2.43;2.23;;;;;;;;;;5038156;28;20879;-48
2022/02/07 16:34:44;;;;;;;6.67;2.20;;;;;;;;;;5037766;28;20427;-49
2022/02/07 16:37:10;;;;;;;16.50;3.05;;;;;;;;;;5038367;28;20408;-49
2022/02/07 16:39:36;;;;;;;9.15;2.00;;;;;;;;;;5037538;28;20183;-48
2022/02/07 16:42:03;;;;;;;2.38;2.17;;;;;;;;;;5036634;28;20195;-50
2022/02/07 16:44:30;;;;;;;4.22;2.15;;;;;;;;;;5037168;28;20192;-48
2022/02/07 16:46:57;;;;;;;7.40;2.22;;;;;;;;;;5037415;28;20679;-48
2022/02/07 16:49:24;;;;;;;5.70;2.45;;;;;;;;;;5036708;28;20198;-49
2022/02/07 16:51:51;;;;;;;4.05;2.05;;;;;;;;;;5037290;28;20178;-50
2022/02/07 16:54:17;;;;;;;4.30;2.53;;;;;;;;;;5036759;28;20191;-48
2022/02/07 16:56:43;;;;;;;16.30;2.83;;;;;;;;;;5036979;28;20258;-48
2022/02/07 16:59:10;;;;;;;5.07;2.30;;;;;;;;;;5036314;28;20205;-48
2022/02/07 17:01:36;;;;;;;8.48;2.35;;;;;;;;;;5035213;28;20799;-48
2022/02/07 17:04:03;;;;;;;7.07;2.38;;;;;;;;;;5036027;28;20175;-49
2022/02/07 17:06:29;;;;;;;6.50;3.08;;;;;;;;;;5036081;28;20168;-50
2022/02/07 17:08:55;;;;;;;7.10;3.23;;;;;;;;;;5036333;28;20277;-48
2022/02/07 17:11:22;;;;;;;3.73;2.47;;;;;;;;;;5035428;28;20949;-48
2022/02/07 17:13:51;;;;;;;6.85;1.98;;;;;;;;;;5036150;28;20494;-50
2022/02/07 17:16:17;;;;;;;5.22;1.88;;;;;;;;;;5036186;28;20163;-49
2022/02/07 17:18:43;;;;;;;7.60;2.72;;;;;;;;;;5035694;28;20215;-47